sensor_id;sensor_type;location;lat;lon;timestamp;pressure;altitude;pressure_sealevel;temperature;humidity
20624;BME280;10471;42.736;23.346;2023-02-13T00:00:16;97330.09;;;-1.05;100.00
20624;BME280;10471;42.736;23.346;2023-02-13T00:02:42;97330.44;;;-1.08;100.00
20624;BME280;10471;42.736;23.346;2023-02-13T00:05:08;97328.81;;;-1.09;100.00
20624;BME280;10471;42.736;23.346;2023-02-13T00:07:33;97325.25;;;-1.08;100.00
20624;BME280;10471;42.736;23.346;2023-02-13T00:09:59;97321.72;;;-1.07;100.00
20624;BME280;10471;42.736;23.346;2023-02-13T00:12:24;97324.94;;;-1.05;100.00
20624;BME280;10471;42.736;23.346;2023-02-13T00:14:49;97330.09;;;-1.05;100.00
20624;BME280;10471;42.736;23.346;2023-02-13T00:17:15;97339.16;;;-1.09;100.00
20624;BME280;10471;42.736;23.346;2023-02-13T00:19:40;97334.97;;;-1.02;100.00
20624;BME280;10471;42.736;23.346;2023-02-13T00:22:06;97337.09;;;-0.97;100.00
20624;BME280;10471;42.736;23.346;2023-02-13T00:24:31;97335.31;;;-0.97;100.00
20624;BME280;10471;42.736;23.346;2023-02-13T00:26:57;97330.00;;;-0.95;100.00
20624;BME280;10471;42.736;23.346;2023-02-13T00:29:22;97334.34;;;-0.96;100.00
20624;BME280;10471;42.736;23.346;2023-02-13T00:31:47;97340.84;;;-0.92;100.00
20624;BME280;10471;42.736;23.346;2023-02-13T00:34:13;97350.84;;;-0.89;100.00
20624;BME280;10471;42.736;23.346;2023-02-13T00:36:38;97343.75;;;-0.87;100.00
20624;BME280;10471;42.736;23.346;2023-02-13T00:39:04;97344.09;;;-0.82;100.00
20624;BME280;10471;42.736;23.346;2023-02-13T00:41:29;97350.75;;;-0.79;100.00
20624;BME280;10471;42.736;23.346;2023-02-13T00:43:55;97356.72;;;-0.79;100.00
20624;BME280;10471;42.736;23.346;2023-02-13T00:46:20;97357.19;;;-0.83;100.00
20624;BME280;10471;42.736;23.346;2023-02-13T00:48:46;97347.63;;;-0.91;100.00
20624;BME280;10471;42.736;23.346;2023-02-13T00:51:11;97350.97;;;-0.98;100.00
20624;BME280;10471;42.736;23.346;2023-02-13T00:53:37;97359.81;;;-1.09;100.00
20624;BME280;10471;42.736;23.346;2023-02-13T00:56:05;97362.69;;;-1.20;100.00
20624;BME280;10471;42.736;23.346;2023-02-13T00:58:31;97367.75;;;-1.35;100.00
20624;BME280;10471;42.736;23.346;2023-02-13T01:00:56;97363.88;;;-1.39;100.00
20624;BME280;10471;42.736;23.346;2023-02-13T01:03:22;97370.47;;;-1.62;100.00
20624;BME280;10471;42.736;23.346;2023-02-13T01:05:48;97371.75;;;-1.66;100.00
20624;BME280;10471;42.736;23.346;2023-02-13T01:08:15;97358.94;;;-1.93;100.00
20624;BME280;10471;42.736;23.346;2023-02-13T01:10:41;97362.84;;;-1.89;100.00
20624;BME280;10471;42.736;23.346;2023-02-13T01:13:08;97360.16;;;-1.88;100.00
20624;BME280;10471;42.736;23.346;2023-02-13T01:15:34;97360.34;;;-1.81;100.00
20624;BME280;10471;42.736;23.346;2023-02-13T01:17:59;97354.06;;;-1.79;100.00
20624;BME280;10471;42.736;23.346;2023-02-13T01:20:26;97360.03;;;-1.78;100.00
20624;BME280;10471;42.736;23.346;2023-02-13T01:22:53;97373.94;;;-1.79;100.00
20624;BME280;10471;42.736;23.346;2023-02-13T01:25:19;97358.72;;;-1.82;100.00
20624;BME280;10471;42.736;23.346;2023-02-13T01:27:45;97372.34;;;-1.72;100.00
20624;BME280;10471;42.736;23.346;2023-02-13T01:30:12;97375.16;;;-1.83;100.00
20624;BME280;10471;42.736;23.346;2023-02-13T01:32:43;97377.69;;;-1.74;100.00
20624;BME280;10471;42.736;23.346;2023-02-13T01:35:10;97363.97;;;-1.74;100.00
20624;BME280;10471;42.736;23.346;2023-02-13T01:37:36;97370.38;;;-1.78;100.00
20624;BME280;10471;42.736;23.346;2023-02-13T01:40:04;97368.78;;;-1.79;100.00
20624;BME280;10471;42.736;23.346;2023-02-13T01:42:32;97368.00;;;-1.89;100.00
20624;BME280;10471;42.736;23.346;2023-02-13T01:48:04;97369.25;;;-1.76;100.00
20624;BME280;10471;42.736;23.346;2023-02-13T01:50:36;97366.81;;;-1.77;100.00
20624;BME280;10471;42.736;23.346;2023-02-13T01:55:48;97371.56;;;-1.73;100.00
20624;BME280;10471;42.736;23.346;2023-02-13T01:58:20;97376.56;;;-1.71;100.00
20624;BME280;10471;42.736;23.346;2023-02-13T02:00:47;97364.59;;;-1.72;100.00
20624;BME280;10471;42.736;23.346;2023-02-13T02:03:24;97369.63;;;-1.71;100.00
20624;BME280;10471;42.736;23.346;2023-02-13T02:05:54;97366.53;;;-1.74;100.00
20624;BME280;10471;42.736;23.346;2023-02-13T02:08:21;97373.03;;;-1.70;100.00
20624;BME280;10471;42.736;23.346;2023-02-13T02:10:47;97369.16;;;-1.66;100.00
20624;BME280;10471;42.736;23.346;2023-02-13T02:13:18;97366.44;;;-1.65;100.00
20624;BME280;10471;42.736;23.346;2023-02-13T02:15:44;97369.00;;;-1.65;100.00
20624;BME280;10471;42.736;23.346;2023-02-13T02:18:21;97368.22;;;-1.65;100.00
20624;BME280;10471;42.736;23.346;2023-02-13T02:43:20;97390.75;;;-1.75;100.00
20624;BME280;10471;42.736;23.346;2023-02-13T02:45:39;97407.94;;;-1.84;100.00
20624;BME280;10471;42.736;23.346;2023-02-13T02:51:08;97412.44;;;-2.03;100.00
20624;BME280;10471;42.736;23.346;2023-02-13T02:58:49;97415.06;;;-2.30;100.00
20624;BME280;10471;42.736;23.346;2023-02-13T03:01:36;97415.97;;;-2.39;100.00
20624;BME280;10471;42.736;23.346;2023-02-13T03:04:30;97419.13;;;-2.45;100.00
20624;BME280;10471;42.736;23.346;2023-02-13T03:07:17;97416.84;;;-2.48;100.00
20624;BME280;10471;42.736;23.346;2023-02-13T03:09:46;97410.63;;;-2.55;100.00
20624;BME280;10471;42.736;23.346;2023-02-13T03:12:38;97405.63;;;-2.56;100.00
20624;BME280;10471;42.736;23.346;2023-02-13T03:15:25;97409.00;;;-2.56;100.00
20624;BME280;10471;42.736;23.346;2023-02-13T03:17:52;97415.78;;;-2.55;100.00
20624;BME280;10471;42.736;23.346;2023-02-13T03:20:45;97410.94;;;-2.58;100.00
20624;BME280;10471;42.736;23.346;2023-02-13T03:32:42;97423.13;;;-2.60;100.00
20624;BME280;10471;42.736;23.346;2023-02-13T03:38:12;97418.41;;;-2.64;100.00
20624;BME280;10471;42.736;23.346;2023-02-13T03:40:49;97416.59;;;-2.81;100.00
20624;BME280;10471;42.736;23.346;2023-02-13T03:46:11;97413.28;;;-2.91;100.00
20624;BME280;10471;42.736;23.346;2023-02-13T03:48:39;97425.31;;;-2.91;100.00
20624;BME280;10471;42.736;23.346;2023-02-13T03:51:33;97423.84;;;-2.94;100.00
20624;BME280;10471;42.736;23.346;2023-02-13T03:54:05;97417.88;;;-2.94;100.00
20624;BME280;10471;42.736;23.346;2023-02-13T03:56:33;97422.75;;;-2.91;100.00
20624;BME280;10471;42.736;23.346;2023-02-13T03:59:23;97421.13;;;-2.92;100.00
20624;BME280;10471;42.736;23.346;2023-02-13T04:04:35;97415.56;;;-2.97;100.00
20624;BME280;10471;42.736;23.346;2023-02-13T04:07:08;97411.97;;;-3.04;100.00
20624;BME280;10471;42.736;23.346;2023-02-13T04:09:37;97413.56;;;-3.03;100.00
20624;BME280;10471;42.736;23.346;2023-02-13T04:14:35;97423.63;;;-3.10;100.00
20624;BME280;10471;42.736;23.346;2023-02-13T04:17:05;97423.78;;;-3.11;100.00
20624;BME280;10471;42.736;23.346;2023-02-13T04:19:32;97432.75;;;-3.15;100.00
20624;BME280;10471;42.736;23.346;2023-02-13T04:22:00;97427.84;;;-3.18;100.00
20624;BME280;10471;42.736;23.346;2023-02-13T04:24:26;97437.69;;;-3.31;100.00
20624;BME280;10471;42.736;23.346;2023-02-13T04:26:53;97427.22;;;-3.39;100.00
20624;BME280;10471;42.736;23.346;2023-02-13T04:29:20;97432.97;;;-3.45;100.00
20624;BME280;10471;42.736;23.346;2023-02-13T04:31:46;97429.41;;;-3.44;100.00
20624;BME280;10471;42.736;23.346;2023-02-13T04:34:12;97434.03;;;-3.47;100.00
20624;BME280;10471;42.736;23.346;2023-02-13T04:36:37;97425.34;;;-3.46;100.00
20624;BME280;10471;42.736;23.346;2023-02-13T04:39:03;97422.94;;;-3.48;100.00
20624;BME280;10471;42.736;23.346;2023-02-13T04:41:28;97424.00;;;-3.50;100.00
20624;BME280;10471;42.736;23.346;2023-02-13T04:43:53;97439.63;;;-3.52;100.00
20624;BME280;10471;42.736;23.346;2023-02-13T04:46:19;97440.56;;;-3.53;100.00
20624;BME280;10471;42.736;23.346;2023-02-13T04:48:44;97437.97;;;-3.53;100.00
20624;BME280;10471;42.736;23.346;2023-02-13T04:51:10;97440.16;;;-3.58;100.00
20624;BME280;10471;42.736;23.346;2023-02-13T04:53:35;97441.09;;;-3.59;100.00
20624;BME280;10471;42.736;23.346;2023-02-13T04:56:00;97441.94;;;-3.58;100.00
20624;BME280;10471;42.736;23.346;2023-02-13T04:58:26;97447.75;;;-3.56;100.00
20624;BME280;10471;42.736;23.346;2023-02-13T05:00:51;97450.84;;;-3.53;100.00
20624;BME280;10471;42.736;23.346;2023-02-13T05:03:17;97443.00;;;-3.51;100.00
20624;BME280;10471;42.736;23.346;2023-02-13T05:05:42;97451.41;;;-3.49;100.00
20624;BME280;10471;42.736;23.346;2023-02-13T05:08:08;97460.06;;;-3.60;100.00
20624;BME280;10471;42.736;23.346;2023-02-13T05:10:34;97458.72;;;-3.64;100.00
20624;BME280;10471;42.736;23.346;2023-02-13T05:13:00;97458.47;;;-3.61;100.00
20624;BME280;10471;42.736;23.346;2023-02-13T05:15:25;97449.78;;;-3.60;100.00
20624;BME280;10471;42.736;23.346;2023-02-13T05:17:51;97448.69;;;-3.57;100.00
20624;BME280;10471;42.736;23.346;2023-02-13T05:20:16;97448.56;;;-3.56;100.00
20624;BME280;10471;42.736;23.346;2023-02-13T05:22:46;97455.06;;;-3.52;100.00
20624;BME280;10471;42.736;23.346;2023-02-13T05:25:31;97464.69;;;-3.54;100.00
20624;BME280;10471;42.736;23.346;2023-02-13T05:27:56;97460.06;;;-3.60;100.00
20624;BME280;10471;42.736;23.346;2023-02-13T05:30:22;97470.66;;;-3.63;100.00
20624;BME280;10471;42.736;23.346;2023-02-13T05:32:48;97465.25;;;-3.69;100.00
20624;BME280;10471;42.736;23.346;2023-02-13T05:35:19;97467.94;;;-3.71;100.00
20624;BME280;10471;42.736;23.346;2023-02-13T05:37:44;97473.09;;;-3.71;100.00
20624;BME280;10471;42.736;23.346;2023-02-13T05:40:11;97483.38;;;-3.71;100.00
20624;BME280;10471;42.736;23.346;2023-02-13T05:42:38;97480.41;;;-3.76;100.00
20624;BME280;10471;42.736;23.346;2023-02-13T05:45:03;97475.25;;;-3.76;100.00
20624;BME280;10471;42.736;23.346;2023-02-13T05:47:29;97483.66;;;-3.74;100.00
20624;BME280;10471;42.736;23.346;2023-02-13T05:49:54;97485.28;;;-3.73;100.00
20624;BME280;10471;42.736;23.346;2023-02-13T05:52:20;97488.53;;;-3.71;100.00
20624;BME280;10471;42.736;23.346;2023-02-13T05:54:45;97488.28;;;-3.68;100.00
20624;BME280;10471;42.736;23.346;2023-02-13T05:57:11;97487.34;;;-3.67;100.00
20624;BME280;10471;42.736;23.346;2023-02-13T05:59:36;97483.53;;;-3.63;100.00
20624;BME280;10471;42.736;23.346;2023-02-13T06:02:01;97482.31;;;-3.59;100.00
20624;BME280;10471;42.736;23.346;2023-02-13T06:04:27;97483.66;;;-3.55;100.00
20624;BME280;10471;42.736;23.346;2023-02-13T06:06:52;97491.78;;;-3.50;100.00
20624;BME280;10471;42.736;23.346;2023-02-13T06:09:18;97492.88;;;-3.43;100.00
20624;BME280;10471;42.736;23.346;2023-02-13T06:11:43;97497.19;;;-3.34;100.00
20624;BME280;10471;42.736;23.346;2023-02-13T06:14:10;97490.53;;;-3.27;100.00
20624;BME280;10471;42.736;23.346;2023-02-13T06:16:35;97494.19;;;-3.20;100.00
20624;BME280;10471;42.736;23.346;2023-02-13T06:19:00;97497.72;;;-3.12;100.00
20624;BME280;10471;42.736;23.346;2023-02-13T06:21:27;97499.59;;;-3.04;100.00
20624;BME280;10471;42.736;23.346;2023-02-13T06:23:52;97496.03;;;-2.94;100.00
20624;BME280;10471;42.736;23.346;2023-02-13T06:26:17;97497.91;;;-2.86;100.00
20624;BME280;10471;42.736;23.346;2023-02-13T06:28:43;97498.13;;;-2.80;100.00
20624;BME280;10471;42.736;23.346;2023-02-13T06:31:08;97499.06;;;-2.71;100.00
20624;BME280;10471;42.736;23.346;2023-02-13T06:33:34;97500.13;;;-2.64;100.00
20624;BME280;10471;42.736;23.346;2023-02-13T06:35:59;97505.69;;;-2.60;100.00
20624;BME280;10471;42.736;23.346;2023-02-13T06:38:25;97510.28;;;-2.54;100.00
20624;BME280;10471;42.736;23.346;2023-02-13T06:40:50;97509.72;;;-2.48;100.00
20624;BME280;10471;42.736;23.346;2023-02-13T06:43:16;97516.88;;;-2.42;100.00
20624;BME280;10471;42.736;23.346;2023-02-13T06:45:42;97510.47;;;-2.38;100.00
20624;BME280;10471;42.736;23.346;2023-02-13T06:48:08;97510.72;;;-2.31;100.00
20624;BME280;10471;42.736;23.346;2023-02-13T06:50:33;97510.81;;;-2.23;100.00
20624;BME280;10471;42.736;23.346;2023-02-13T06:53:00;97504.41;;;-2.19;100.00
20624;BME280;10471;42.736;23.346;2023-02-13T06:55:26;97500.00;;;-2.09;100.00
20624;BME280;10471;42.736;23.346;2023-02-13T06:57:51;97496.69;;;-2.02;100.00
20624;BME280;10471;42.736;23.346;2023-02-13T07:00:17;97504.00;;;-1.97;100.00
20624;BME280;10471;42.736;23.346;2023-02-13T07:02:44;97514.84;;;-1.94;100.00
20624;BME280;10471;42.736;23.346;2023-02-13T07:05:11;97500.38;;;-1.87;100.00
20624;BME280;10471;42.736;23.346;2023-02-13T07:07:38;97504.03;;;-1.80;100.00
20624;BME280;10471;42.736;23.346;2023-02-13T07:10:06;97495.38;;;-1.71;100.00
20624;BME280;10471;42.736;23.346;2023-02-13T07:12:32;97503.50;;;-1.66;100.00
20624;BME280;10471;42.736;23.346;2023-02-13T07:14:58;97494.22;;;-1.59;100.00
20624;BME280;10471;42.736;23.346;2023-02-13T07:17:24;97502.03;;;-1.51;100.00
20624;BME280;10471;42.736;23.346;2023-02-13T07:19:51;97497.88;;;-1.44;100.00
20624;BME280;10471;42.736;23.346;2023-02-13T07:22:16;97500.53;;;-1.36;100.00
20624;BME280;10471;42.736;23.346;2023-02-13T07:24:41;97508.38;;;-1.29;100.00
20624;BME280;10471;42.736;23.346;2023-02-13T07:27:07;97500.66;;;-1.21;100.00
20624;BME280;10471;42.736;23.346;2023-02-13T07:29:32;97506.25;;;-1.08;100.00
20624;BME280;10471;42.736;23.346;2023-02-13T07:31:57;97499.84;;;-0.96;100.00
20624;BME280;10471;42.736;23.346;2023-02-13T07:34:23;97493.47;;;-0.84;100.00
20624;BME280;10471;42.736;23.346;2023-02-13T07:36:48;97495.81;;;-0.73;100.00
20624;BME280;10471;42.736;23.346;2023-02-13T07:39:13;97490.88;;;-0.59;100.00
20624;BME280;10471;42.736;23.346;2023-02-13T07:41:39;97496.31;;;-0.44;100.00
20624;BME280;10471;42.736;23.346;2023-02-13T07:44:04;97490.69;;;-0.32;100.00
20624;BME280;10471;42.736;23.346;2023-02-13T07:46:30;97498.34;;;-0.14;100.00
20624;BME280;10471;42.736;23.346;2023-02-13T07:48:55;97491.59;;;0.00;100.00
20624;BME280;10471;42.736;23.346;2023-02-13T07:51:20;97500.38;;;0.15;100.00
20624;BME280;10471;42.736;23.346;2023-02-13T07:53:51;97490.03;;;0.31;100.00
20624;BME280;10471;42.736;23.346;2023-02-13T07:56:17;97495.56;;;0.44;100.00
20624;BME280;10471;42.736;23.346;2023-02-13T07:58:43;97503.69;;;0.57;100.00
20624;BME280;10471;42.736;23.346;2023-02-13T08:01:11;97508.22;;;0.71;100.00
20624;BME280;10471;42.736;23.346;2023-02-13T08:03:37;97498.97;;;0.84;100.00
20624;BME280;10471;42.736;23.346;2023-02-13T08:06:03;97509.50;;;0.91;100.00
20624;BME280;10471;42.736;23.346;2023-02-13T08:08:28;97504.50;;;0.97;100.00
20624;BME280;10471;42.736;23.346;2023-02-13T08:10:54;97501.72;;;1.15;100.00
20624;BME280;10471;42.736;23.346;2023-02-13T08:13:39;97490.69;;;1.21;100.00
20624;BME280;10471;42.736;23.346;2023-02-13T08:16:04;97493.25;;;1.28;100.00
20624;BME280;10471;42.736;23.346;2023-02-13T08:18:30;97489.03;;;1.35;100.00
20624;BME280;10471;42.736;23.346;2023-02-13T08:20:55;97496.16;;;1.41;100.00
20624;BME280;10471;42.736;23.346;2023-02-13T08:23:20;97499.69;;;1.48;100.00
20624;BME280;10471;42.736;23.346;2023-02-13T08:25:46;97496.34;;;1.40;100.00
20624;BME280;10471;42.736;23.346;2023-02-13T08:28:14;97504.56;;;1.51;100.00
20624;BME280;10471;42.736;23.346;2023-02-13T08:30:39;97504.56;;;1.51;100.00
20624;BME280;10471;42.736;23.346;2023-02-13T08:33:04;97499.34;;;1.59;100.00
20624;BME280;10471;42.736;23.346;2023-02-13T08:35:30;97509.00;;;1.89;100.00
20624;BME280;10471;42.736;23.346;2023-02-13T08:37:56;97503.19;;;2.09;100.00
20624;BME280;10471;42.736;23.346;2023-02-13T08:40:25;97498.78;;;2.18;100.00
20624;BME280;10471;42.736;23.346;2023-02-13T08:42:50;97495.09;;;2.35;100.00
20624;BME280;10471;42.736;23.346;2023-02-13T08:45:16;97499.63;;;2.41;100.00
20624;BME280;10471;42.736;23.346;2023-02-13T08:47:41;97494.66;;;2.54;100.00
20624;BME280;10471;42.736;23.346;2023-02-13T08:50:07;97499.63;;;2.63;100.00
20624;BME280;10471;42.736;23.346;2023-02-13T08:52:32;97497.66;;;2.65;100.00
20624;BME280;10471;42.736;23.346;2023-02-13T08:54:57;97492.97;;;2.83;100.00
20624;BME280;10471;42.736;23.346;2023-02-13T08:57:23;97500.97;;;2.96;100.00
20624;BME280;10471;42.736;23.346;2023-02-13T08:59:48;97492.00;;;2.98;100.00
20624;BME280;10471;42.736;23.346;2023-02-13T09:02:14;97490.56;;;3.18;100.00
20624;BME280;10471;42.736;23.346;2023-02-13T09:04:39;97493.63;;;3.36;100.00
20624;BME280;10471;42.736;23.346;2023-02-13T09:07:04;97491.94;;;3.43;100.00
20624;BME280;10471;42.736;23.346;2023-02-13T09:09:30;97493.44;;;3.37;100.00
20624;BME280;10471;42.736;23.346;2023-02-13T09:11:55;97480.78;;;3.49;100.00
20624;BME280;10471;42.736;23.346;2023-02-13T09:14:23;97487.00;;;3.48;100.00
20624;BME280;10471;42.736;23.346;2023-02-13T09:16:48;97500.13;;;3.03;100.00
20624;BME280;10471;42.736;23.346;2023-02-13T09:19:13;97490.88;;;3.15;100.00
20624;BME280;10471;42.736;23.346;2023-02-13T09:21:39;97486.22;;;3.25;100.00
20624;BME280;10471;42.736;23.346;2023-02-13T09:24:10;97485.28;;;3.40;100.00
20624;BME280;10471;42.736;23.346;2023-02-13T09:26:36;97497.38;;;3.33;100.00
20624;BME280;10471;42.736;23.346;2023-02-13T09:29:01;97480.31;;;3.31;100.00
20624;BME280;10471;42.736;23.346;2023-02-13T09:31:27;97483.56;;;3.33;100.00
20624;BME280;10471;42.736;23.346;2023-02-13T09:33:53;97481.03;;;3.25;100.00
20624;BME280;10471;42.736;23.346;2023-02-13T09:36:20;97476.75;;;3.46;100.00
20624;BME280;10471;42.736;23.346;2023-02-13T09:38:50;97476.97;;;3.22;100.00
20624;BME280;10471;42.736;23.346;2023-02-13T09:41:25;97471.53;;;2.95;100.00
20624;BME280;10471;42.736;23.346;2023-02-13T09:43:55;97462.63;;;2.75;100.00
20624;BME280;10471;42.736;23.346;2023-02-13T09:48:59;97473.16;;;3.33;100.00
20624;BME280;10471;42.736;23.346;2023-02-13T09:51:26;97465.22;;;3.41;100.00
20624;BME280;10471;42.736;23.346;2023-02-13T09:54:01;97460.81;;;3.56;100.00
20624;BME280;10471;42.736;23.346;2023-02-13T10:16:09;97424.66;;;3.96;100.00
20624;BME280;10471;42.736;23.346;2023-02-13T10:21:14;97433.78;;;3.57;100.00
20624;BME280;10471;42.736;23.346;2023-02-13T10:23:52;97417.09;;;3.37;100.00
20624;BME280;10471;42.736;23.346;2023-02-13T10:26:24;97406.66;;;3.37;100.00
20624;BME280;10471;42.736;23.346;2023-02-13T10:29:11;97404.94;;;3.58;100.00
20624;BME280;10471;42.736;23.346;2023-02-13T10:31:59;97402.63;;;3.49;100.00
20624;BME280;10471;42.736;23.346;2023-02-13T10:34:30;97407.13;;;3.55;100.00
20624;BME280;10471;42.736;23.346;2023-02-13T10:36:59;97397.28;;;3.86;100.00
20624;BME280;10471;42.736;23.346;2023-02-13T10:39:27;97390.06;;;3.88;100.00
20624;BME280;10471;42.736;23.346;2023-02-13T10:41:53;97386.97;;;3.98;100.00
20624;BME280;10471;42.736;23.346;2023-02-13T10:52:20;97356.38;;;4.76;100.00
20624;BME280;10471;42.736;23.346;2023-02-13T10:55:04;97367.50;;;4.91;100.00
20624;BME280;10471;42.736;23.346;2023-02-13T11:03:29;97349.84;;;5.26;100.00
20624;BME280;10471;42.736;23.346;2023-02-13T11:05:56;97345.78;;;5.51;100.00
20624;BME280;10471;42.736;23.346;2023-02-13T11:10:55;97325.09;;;5.63;100.00
20624;BME280;10471;42.736;23.346;2023-02-13T11:13:26;97322.38;;;5.84;100.00
20624;BME280;10471;42.736;23.346;2023-02-13T11:16:03;97328.81;;;5.81;100.00
20624;BME280;10471;42.736;23.346;2023-02-13T11:18:35;97328.59;;;5.76;100.00
20624;BME280;10471;42.736;23.346;2023-02-13T11:21:09;97315.53;;;5.89;100.00
20624;BME280;10471;42.736;23.346;2023-02-13T11:23:43;97310.34;;;6.02;100.00
20624;BME280;10471;42.736;23.346;2023-02-13T11:26:13;97303.09;;;6.17;97.79
20624;BME280;10471;42.736;23.346;2023-02-13T11:28:58;97297.47;;;6.39;96.62
20624;BME280;10471;42.736;23.346;2023-02-13T11:31:37;97295.06;;;6.38;95.10
20624;BME280;10471;42.736;23.346;2023-02-13T11:34:28;97287.44;;;6.30;94.63
20624;BME280;10471;42.736;23.346;2023-02-13T11:37:18;97274.72;;;6.52;94.99
20624;BME280;10471;42.736;23.346;2023-02-13T11:39:45;97276.09;;;6.61;89.34
20624;BME280;10471;42.736;23.346;2023-02-13T11:42:16;97274.09;;;6.70;87.30
20624;BME280;10471;42.736;23.346;2023-02-13T11:44:49;97270.66;;;6.69;88.81
20624;BME280;10471;42.736;23.346;2023-02-13T11:47:15;97266.78;;;6.85;87.02
20624;BME280;10471;42.736;23.346;2023-02-13T11:49:45;97250.06;;;6.99;87.29
20624;BME280;10471;42.736;23.346;2023-02-13T11:52:32;97240.34;;;7.12;86.26
20624;BME280;10471;42.736;23.346;2023-02-13T11:55:05;97242.06;;;7.31;84.90
20624;BME280;10471;42.736;23.346;2023-02-13T11:57:58;97237.97;;;6.98;84.32
20624;BME280;10471;42.736;23.346;2023-02-13T12:03:37;97234.75;;;6.89;81.46
20624;BME280;10471;42.736;23.346;2023-02-13T12:06:09;97231.25;;;7.08;78.12
20624;BME280;10471;42.736;23.346;2023-02-13T12:08:41;97223.59;;;7.07;76.91
20624;BME280;10471;42.736;23.346;2023-02-13T12:13:49;97223.50;;;7.32;71.74
20624;BME280;10471;42.736;23.346;2023-02-13T12:18:59;97219.50;;;7.23;70.90
20624;BME280;10471;42.736;23.346;2023-02-13T12:26:47;97203.59;;;7.56;61.78
20624;BME280;10471;42.736;23.346;2023-02-13T12:37:23;97200.00;;;7.81;56.74
20624;BME280;10471;42.736;23.346;2023-02-13T12:40:05;97191.31;;;7.80;57.54
20624;BME280;10471;42.736;23.346;2023-02-13T12:45:45;97188.66;;;7.87;58.04
20624;BME280;10471;42.736;23.346;2023-02-13T12:48:34;97185.34;;;7.74;56.93
20624;BME280;10471;42.736;23.346;2023-02-13T12:51:18;97169.31;;;8.06;57.46
20624;BME280;10471;42.736;23.346;2023-02-13T13:24:27;97153.63;;;7.99;54.13
20624;BME280;10471;42.736;23.346;2023-02-13T13:26:54;97151.28;;;7.91;55.19
20624;BME280;10471;42.736;23.346;2023-02-13T13:29:29;97151.09;;;7.86;55.65
20624;BME280;10471;42.736;23.346;2023-02-13T13:32:02;97133.81;;;8.03;55.87
20624;BME280;10471;42.736;23.346;2023-02-13T13:34:30;97138.38;;;8.14;55.43
20624;BME280;10471;42.736;23.346;2023-02-13T13:37:04;97142.22;;;8.12;56.17
20624;BME280;10471;42.736;23.346;2023-02-13T13:42:44;97137.88;;;7.99;55.45
20624;BME280;10471;42.736;23.346;2023-02-13T13:50:27;97136.59;;;8.08;58.84
20624;BME280;10471;42.736;23.346;2023-02-13T14:01:17;97133.13;;;8.14;58.38
20624;BME280;10471;42.736;23.346;2023-02-13T14:03:45;97131.16;;;7.85;59.50
20624;BME280;10471;42.736;23.346;2023-02-13T14:06:16;97130.25;;;7.98;60.18
20624;BME280;10471;42.736;23.346;2023-02-13T14:13:55;97119.84;;;7.85;61.44
20624;BME280;10471;42.736;23.346;2023-02-13T14:16:50;97125.34;;;8.01;60.96
20624;BME280;10471;42.736;23.346;2023-02-13T14:19:28;97117.91;;;7.98;60.58
20624;BME280;10471;42.736;23.346;2023-02-13T14:24:49;97116.44;;;8.02;60.66
20624;BME280;10471;42.736;23.346;2023-02-13T14:27:29;97116.19;;;7.86;61.56
20624;BME280;10471;42.736;23.346;2023-02-13T14:29:56;97113.78;;;7.84;61.25
20624;BME280;10471;42.736;23.346;2023-02-13T14:32:36;97111.97;;;7.85;61.57
20624;BME280;10471;42.736;23.346;2023-02-13T14:35:17;97109.09;;;7.93;61.97
20624;BME280;10471;42.736;23.346;2023-02-13T14:38:20;97113.94;;;7.65;64.88
20624;BME280;10471;42.736;23.346;2023-02-13T14:40:51;97115.69;;;7.47;66.81
20624;BME280;10471;42.736;23.346;2023-02-13T14:43:46;97113.78;;;7.60;66.68
20624;BME280;10471;42.736;23.346;2023-02-13T14:46:21;97119.56;;;7.44;65.96
20624;BME280;10471;42.736;23.346;2023-02-13T14:49:03;97104.81;;;7.43;67.17
20624;BME280;10471;42.736;23.346;2023-02-13T14:51:39;97113.16;;;7.34;67.52
20624;BME280;10471;42.736;23.346;2023-02-13T14:57:22;97103.28;;;7.36;67.03
20624;BME280;10471;42.736;23.346;2023-02-13T14:59:58;97097.69;;;7.26;67.40
20624;BME280;10471;42.736;23.346;2023-02-13T15:02:40;97114.75;;;7.41;64.78
20624;BME280;10471;42.736;23.346;2023-02-13T15:05:17;97100.59;;;7.18;65.78
20624;BME280;10471;42.736;23.346;2023-02-13T15:07:52;97105.06;;;7.11;65.35
20624;BME280;10471;42.736;23.346;2023-02-13T15:10:39;97101.09;;;6.96;65.56
20624;BME280;10471;42.736;23.346;2023-02-13T15:13:16;97107.38;;;6.88;65.31
20624;BME280;10471;42.736;23.346;2023-02-13T15:15:44;97101.91;;;6.90;67.20
20624;BME280;10471;42.736;23.346;2023-02-13T15:18:17;97106.44;;;6.76;68.76
20624;BME280;10471;42.736;23.346;2023-02-13T15:20:43;97103.00;;;6.76;68.39
20624;BME280;10471;42.736;23.346;2023-02-13T15:23:23;97110.69;;;6.71;69.98
20624;BME280;10471;42.736;23.346;2023-02-13T15:28:24;97112.19;;;6.48;71.97
20624;BME280;10471;42.736;23.346;2023-02-13T15:30:58;97113.41;;;6.45;73.01
20624;BME280;10471;42.736;23.346;2023-02-13T15:33:26;97105.00;;;6.30;74.63
20624;BME280;10471;42.736;23.346;2023-02-13T15:35:56;97107.03;;;6.22;75.77
20624;BME280;10471;42.736;23.346;2023-02-13T15:38:32;97100.59;;;6.05;76.89
20624;BME280;10471;42.736;23.346;2023-02-13T15:41:08;97115.34;;;5.93;77.68
20624;BME280;10471;42.736;23.346;2023-02-13T15:43:37;97116.53;;;5.84;78.09
20624;BME280;10471;42.736;23.346;2023-02-13T15:46:07;97117.09;;;5.73;78.84
20624;BME280;10471;42.736;23.346;2023-02-13T15:48:42;97117.31;;;5.65;79.62
20624;BME280;10471;42.736;23.346;2023-02-13T15:51:08;97117.91;;;5.54;79.92
20624;BME280;10471;42.736;23.346;2023-02-13T15:53:34;97121.53;;;5.53;81.13
20624;BME280;10471;42.736;23.346;2023-02-13T15:56:03;97115.91;;;5.43;81.31
20624;BME280;10471;42.736;23.346;2023-02-13T15:58:31;97119.72;;;5.34;82.74
20624;BME280;10471;42.736;23.346;2023-02-13T16:01:03;97127.16;;;5.24;83.63
20624;BME280;10471;42.736;23.346;2023-02-13T16:03:30;97126.31;;;5.18;84.49